createdAt,value
2018-01-18T00:01:10.202Z,0.00
2018-01-18T00:02:10.233Z,0.00
2018-01-18T00:04:04.759Z,0.00
2018-01-18T00:05:04.768Z,0.00
2018-01-18T00:06:59.167Z,0.00
2018-01-18T00:07:59.268Z,0.00
2018-01-18T00:10:02.100Z,0.00
2018-01-18T00:10:59.726Z,0.00
2018-01-18T00:12:55.255Z,0.00
2018-01-18T00:13:54.457Z,0.00
2018-01-18T00:15:48.903Z,0.00
2018-01-18T00:16:49.984Z,0.00
2018-01-18T00:18:42.305Z,0.00
2018-01-18T00:19:42.312Z,0.00
2018-01-18T00:21:39.267Z,0.00
2018-01-18T00:22:38.420Z,0.00
2018-01-18T00:24:31.656Z,0.00
2018-01-18T00:25:32.187Z,0.00
2018-01-18T00:27:25.722Z,0.00
2018-01-18T00:28:25.098Z,0.00
2018-01-18T00:30:19.667Z,0.00
2018-01-18T00:31:19.736Z,0.00
2018-01-18T00:33:14.532Z,0.00
2018-01-18T00:34:14.529Z,0.00
2018-01-18T00:36:08.987Z,0.00
2018-01-18T00:37:09.064Z,0.00
2018-01-18T00:39:03.393Z,0.00
2018-01-18T00:40:03.406Z,0.00
2018-01-18T00:41:58.169Z,0.00
2018-01-18T00:42:57.393Z,0.00
2018-01-18T00:44:52.281Z,0.00
2018-01-18T00:45:51.723Z,0.00
2018-01-18T00:47:46.826Z,0.00
2018-01-18T00:48:46.386Z,0.00
2018-01-18T00:50:41.747Z,0.00
2018-01-18T00:51:40.346Z,0.00
2018-01-18T00:53:34.572Z,0.00
2018-01-18T00:54:34.583Z,0.00
2018-01-18T00:56:28.502Z,0.00
2018-01-18T00:57:28.394Z,0.00
2018-01-18T00:59:23.631Z,0.00
2018-01-18T01:00:22.629Z,0.00
2018-01-18T01:02:16.484Z,0.00
2018-01-18T01:03:16.492Z,0.00
2018-01-18T01:05:11.784Z,0.00
2018-01-18T01:06:10.766Z,0.00
2018-01-18T01:08:18.035Z,0.00
2018-01-18T01:09:17.731Z,0.00
2018-01-18T01:11:11.372Z,0.00
2018-01-18T01:12:11.387Z,0.00
2018-01-18T01:14:04.817Z,0.00
2018-01-18T01:15:04.811Z,0.00
2018-01-18T01:17:00.992Z,0.00
2018-01-18T01:18:00.962Z,0.00
2018-01-18T01:19:57.533Z,0.00
2018-01-18T01:20:55.479Z,0.00
2018-01-18T01:22:49.887Z,0.00
2018-01-18T01:23:49.077Z,0.00
2018-01-18T01:25:42.546Z,0.00
2018-01-18T01:26:42.503Z,0.00
2018-01-18T01:28:36.961Z,0.00
2018-01-18T01:29:37.449Z,0.00
2018-01-18T01:31:32.404Z,0.00
2018-01-18T01:32:32.393Z,0.00
2018-01-18T01:34:27.901Z,0.00
2018-01-18T01:35:26.501Z,0.00
2018-01-18T01:37:21.456Z,0.00
2018-01-18T01:38:21.174Z,0.00
2018-01-18T01:40:15.598Z,0.00
2018-01-18T01:41:15.418Z,0.00
2018-01-18T01:43:08.816Z,0.00
2018-01-18T01:44:09.393Z,0.00
2018-01-18T01:46:03.698Z,0.00
2018-01-18T01:47:03.180Z,0.00
2018-01-18T01:48:57.852Z,0.00
2018-01-18T01:49:57.607Z,0.00
2018-01-18T01:51:52.058Z,0.00
2018-01-18T01:52:52.998Z,0.00
2018-01-18T01:54:48.025Z,0.00
2018-01-18T01:55:47.149Z,0.00
2018-01-18T01:57:41.606Z,0.00
2018-01-18T01:58:40.675Z,0.00
2018-01-18T02:00:35.088Z,0.00
2018-01-18T02:01:35.090Z,0.00
2018-01-18T02:03:28.958Z,0.00
2018-01-18T02:04:29.547Z,0.00
2018-01-18T02:06:23.328Z,0.00
2018-01-18T02:07:22.556Z,0.00
2018-01-18T02:09:16.500Z,0.00
2018-01-18T02:10:15.971Z,0.00
2018-01-18T02:12:09.421Z,0.00
2018-01-18T02:13:09.930Z,0.00
2018-01-18T02:15:03.354Z,0.00
2018-01-18T02:16:02.832Z,0.00
2018-01-18T02:17:58.305Z,0.00
2018-01-18T02:18:57.460Z,0.00
2018-01-18T02:20:51.893Z,0.00
2018-01-18T02:21:51.039Z,0.00
2018-01-18T02:23:45.449Z,0.00
2018-01-18T02:24:45.442Z,0.00
2018-01-18T02:26:39.887Z,0.00
2018-01-18T02:27:40.392Z,0.00
2018-01-18T02:29:34.385Z,0.00
2018-01-18T02:30:34.325Z,0.00
2018-01-18T02:32:30.182Z,0.00
2018-01-18T02:33:28.861Z,0.00
2018-01-18T02:35:24.787Z,0.00
2018-01-18T02:36:23.348Z,0.00
2018-01-18T02:38:18.748Z,0.00
2018-01-18T02:39:17.823Z,0.00
2018-01-18T02:41:12.765Z,0.00
2018-01-18T02:42:11.162Z,0.00
2018-01-18T02:44:05.666Z,0.00
2018-01-18T02:45:04.830Z,0.00
2018-01-18T02:47:00.195Z,0.00
2018-01-18T02:47:59.669Z,0.00
2018-01-18T02:49:53.969Z,0.00
2018-01-18T02:50:53.942Z,0.00
2018-01-18T02:52:49.939Z,0.00
2018-01-18T03:00:52.545Z,0.00
2018-01-18T03:01:52.600Z,0.00
2018-01-18T03:03:47.287Z,0.00
2018-01-18T03:04:47.969Z,0.00
2018-01-18T03:06:42.865Z,0.00
2018-01-18T03:07:41.574Z,0.00
2018-01-18T03:09:36.567Z,0.00
2018-01-18T03:10:36.395Z,0.00
2018-01-18T03:12:31.066Z,0.00
2018-01-18T03:13:31.057Z,0.00
2018-01-18T03:15:27.552Z,0.00
2018-01-18T03:16:25.066Z,0.00
2018-01-18T03:18:19.603Z,0.00
2018-01-18T03:19:19.616Z,0.00
2018-01-18T03:21:13.030Z,0.00
2018-01-18T03:22:13.006Z,0.00
2018-01-18T03:24:06.973Z,0.00
2018-01-18T03:25:06.449Z,0.00
2018-01-18T03:27:03.908Z,0.00
2018-01-18T03:28:03.917Z,0.00
2018-01-18T03:34:21.705Z,0.00
2018-01-18T03:35:20.858Z,0.00
2018-01-18T03:37:17.312Z,0.00
2018-01-18T03:38:15.701Z,0.00
2018-01-18T03:40:12.297Z,0.00
2018-01-18T03:41:12.596Z,0.00
2018-01-18T03:43:06.135Z,0.00
2018-01-18T03:44:06.104Z,0.00
2018-01-18T03:46:00.553Z,0.00
2018-01-18T03:47:00.591Z,0.00
2018-01-18T03:48:55.476Z,0.00
2018-01-18T03:49:55.958Z,0.00
2018-01-18T03:51:50.973Z,0.00
2018-01-18T03:52:51.388Z,0.00
2018-01-18T03:54:43.995Z,0.00
2018-01-18T03:55:44.621Z,0.00
2018-01-18T03:57:39.248Z,0.00
2018-01-18T03:58:39.915Z,0.00
2018-01-18T04:00:33.475Z,0.00
2018-01-18T04:01:33.495Z,0.00
2018-01-18T04:03:30.489Z,0.00
2018-01-18T04:04:29.566Z,0.00
2018-01-18T04:06:24.056Z,0.00
2018-01-18T04:07:24.040Z,0.00
2018-01-18T04:09:18.502Z,0.00
2018-01-18T04:10:18.446Z,0.00
2018-01-18T04:12:26.938Z,0.00
2018-01-18T04:13:25.457Z,0.00
2018-01-18T04:15:19.923Z,0.00
2018-01-18T04:16:19.895Z,0.00
2018-01-18T04:18:15.865Z,0.00
2018-01-18T04:19:15.829Z,0.00
2018-01-18T04:21:09.772Z,0.00
2018-01-18T04:22:09.243Z,0.00
2018-01-18T04:24:05.696Z,0.00
2018-01-18T04:25:05.178Z,0.00
2018-01-18T04:27:01.161Z,0.00
2018-01-18T04:28:01.142Z,0.00
2018-01-18T04:29:55.598Z,0.00
2018-01-18T04:30:55.590Z,0.00
2018-01-18T04:32:49.985Z,0.00
2018-01-18T04:33:49.989Z,0.00
2018-01-18T04:35:46.959Z,0.00
2018-01-18T04:36:46.902Z,0.00
2018-01-18T04:38:42.885Z,0.00
2018-01-18T04:39:42.845Z,0.00
2018-01-18T04:41:38.797Z,0.00
2018-01-18T04:42:38.766Z,0.00
2018-01-18T04:44:35.217Z,0.00
2018-01-18T04:45:34.680Z,0.00
2018-01-18T04:47:31.635Z,0.00
2018-01-18T04:48:31.630Z,0.00
2018-01-18T04:50:28.109Z,0.00
2018-01-18T04:51:27.107Z,0.00
2018-01-18T04:53:22.509Z,0.00
2018-01-18T04:54:23.024Z,0.00
2018-01-18T04:56:18.416Z,0.00
2018-01-18T04:57:18.418Z,0.00
2018-01-18T04:59:14.383Z,0.00
2018-01-18T05:00:14.856Z,0.00
2018-01-18T05:02:10.793Z,0.00
2018-01-18T05:03:10.278Z,0.00
2018-01-18T05:05:06.237Z,0.00
2018-01-18T05:06:06.216Z,0.00
2018-01-18T05:08:02.182Z,0.00
2018-01-18T05:09:02.144Z,0.00
2018-01-18T05:10:58.615Z,0.00
2018-01-18T05:11:58.044Z,0.00
2018-01-18T05:13:54.016Z,0.00
2018-01-18T05:14:53.974Z,0.00
2018-01-18T05:16:50.456Z,0.00
2018-01-18T05:17:49.888Z,0.00
2018-01-18T05:19:45.840Z,0.00
2018-01-18T05:20:45.836Z,0.00
2018-01-18T05:22:41.293Z,0.00
2018-01-18T05:23:41.195Z,0.00
2018-01-18T05:25:34.679Z,0.00
2018-01-18T05:26:34.694Z,0.00
2018-01-18T05:28:29.104Z,0.00
2018-01-18T05:29:29.622Z,0.00
2018-01-18T05:31:24.561Z,0.00
2018-01-18T05:32:24.040Z,0.00
2018-01-18T05:34:18.986Z,0.00
2018-01-18T05:35:17.960Z,0.00
2018-01-18T05:37:14.416Z,0.00
2018-01-18T05:38:13.905Z,0.00
2018-01-18T05:40:10.771Z,0.00
2018-01-18T05:41:09.841Z,0.00
2018-01-18T05:43:05.804Z,0.00
2018-01-18T05:44:05.720Z,0.00
2018-01-18T05:46:01.678Z,0.00
2018-01-18T05:47:01.655Z,0.00
2018-01-18T05:48:57.613Z,0.00
2018-01-18T05:49:57.599Z,0.00
2018-01-18T05:51:52.550Z,0.00
2018-01-18T05:52:52.002Z,0.00
2018-01-18T05:54:45.440Z,0.00
2018-01-18T05:55:45.418Z,0.00
2018-01-18T05:57:40.879Z,0.00
2018-01-18T05:58:39.857Z,0.00
2018-01-18T06:00:34.293Z,0.00
2018-01-18T06:01:34.803Z,0.00
2018-01-18T06:03:31.723Z,0.00
2018-01-18T06:04:30.729Z,0.00
2018-01-18T06:06:26.082Z,0.00
2018-01-18T06:07:24.631Z,0.00
2018-01-18T06:09:19.094Z,0.00
2018-01-18T06:10:19.052Z,0.00
2018-01-18T06:12:15.504Z,0.00
2018-01-18T06:13:14.983Z,0.00
2018-01-18T06:15:09.420Z,0.00
2018-01-18T06:16:08.387Z,0.00
2018-01-18T06:18:06.853Z,0.00
2018-01-18T06:19:05.210Z,0.00
2018-01-18T06:21:04.136Z,0.00
2018-01-18T06:22:03.240Z,0.00
2018-01-18T06:23:57.672Z,0.00
2018-01-18T06:24:57.638Z,0.00
2018-01-18T06:26:55.019Z,0.00
2018-01-18T06:27:53.591Z,0.00
2018-01-18T06:29:48.535Z,0.00
2018-01-18T06:30:47.999Z,0.00
2018-01-18T06:32:43.922Z,0.00
2018-01-18T06:33:43.921Z,0.00
2018-01-18T06:35:37.348Z,0.00
2018-01-18T06:36:37.334Z,0.00
2018-01-18T06:38:33.309Z,0.00
2018-01-18T06:39:33.251Z,0.00
2018-01-18T06:41:28.216Z,0.00
2018-01-18T06:42:28.634Z,0.00
2018-01-18T06:44:23.124Z,0.00
2018-01-18T06:45:22.099Z,0.00
2018-01-18T06:47:19.584Z,0.00
2018-01-18T06:48:18.559Z,0.00
2018-01-18T06:50:14.033Z,0.00
2018-01-18T06:51:13.985Z,0.00
2018-01-18T06:53:09.945Z,0.00
2018-01-18T06:54:10.427Z,0.00
2018-01-18T06:56:06.344Z,0.00
2018-01-18T06:57:05.801Z,0.00
2018-01-18T06:59:00.266Z,0.00
2018-01-18T07:00:00.240Z,0.00
2018-01-18T07:01:54.652Z,0.00
2018-01-18T07:02:54.666Z,4.00
2018-01-18T07:04:50.036Z,4.00
2018-01-18T07:05:49.088Z,0.00
2018-01-18T07:07:43.503Z,4.00
2018-01-18T07:08:43.513Z,0.00
2018-01-18T07:10:42.971Z,4.00
2018-01-18T07:11:42.465Z,8.00
2018-01-18T07:13:35.969Z,4.00
2018-01-18T07:14:35.974Z,8.00
2018-01-18T07:16:33.430Z,12.00
2018-01-18T07:17:32.417Z,12.00
2018-01-18T07:19:26.352Z,24.00
2018-01-18T07:20:26.336Z,36.00
2018-01-18T07:22:20.738Z,56.00
2018-01-18T07:23:20.719Z,56.00
2018-01-18T07:25:15.150Z,64.00
2018-01-18T07:26:15.159Z,68.00
2018-01-18T07:28:09.614Z,72.00
2018-01-18T07:29:09.591Z,76.00
2018-01-18T07:31:07.049Z,72.00
2018-01-18T07:32:06.066Z,52.00
2018-01-18T07:34:02.983Z,52.00
2018-01-18T07:35:01.485Z,76.00
2018-01-18T07:36:55.930Z,144.00
2018-01-18T07:37:55.904Z,128.00
2018-01-18T07:39:50.357Z,200.00
2018-01-18T07:40:50.328Z,172.00
2018-01-18T07:42:46.259Z,180.00
2018-01-18T07:43:46.255Z,172.00
2018-01-18T07:45:40.712Z,196.00
2018-01-18T07:46:41.627Z,156.00
2018-01-18T07:48:36.734Z,232.00
2018-01-18T07:49:36.891Z,216.00
2018-01-18T07:51:30.376Z,320.00
2018-01-18T07:52:29.615Z,400.00
2018-01-18T07:54:24.115Z,292.00
2018-01-18T07:55:24.074Z,384.00
2018-01-18T07:57:34.081Z,476.00
2018-01-18T07:58:33.672Z,412.00
2018-01-18T08:01:01.949Z,440.00
2018-01-18T08:01:53.897Z,360.00
2018-01-18T08:03:49.833Z,208.00
2018-01-18T08:04:49.832Z,328.00
2018-01-18T08:06:46.439Z,412.00
2018-01-18T08:09:51.883Z,716.00
2018-01-18T08:12:22.863Z,928.00
2018-01-18T08:13:22.353Z,992.00
2018-01-18T08:15:18.533Z,744.00
2018-01-18T08:16:18.526Z,724.00
2018-01-18T08:18:13.668Z,932.00
2018-01-18T08:19:13.412Z,988.00
2018-01-18T08:21:11.777Z,1448.00
2018-01-18T08:22:11.267Z,1364.00
2018-01-18T08:24:08.440Z,1216.00
2018-01-18T08:25:05.027Z,1164.00
2018-01-18T08:27:00.068Z,1408.00
2018-01-18T08:28:00.477Z,1704.00
2018-01-18T08:29:55.561Z,1416.00
2018-01-18T08:30:55.520Z,1396.00
2018-01-18T08:32:51.053Z,1280.00
2018-01-18T08:33:50.492Z,1328.00
2018-01-18T08:35:46.421Z,1692.00
2018-01-18T08:36:46.401Z,1660.00
2018-01-18T08:38:42.860Z,1516.00
2018-01-18T08:39:41.992Z,1668.00
2018-01-18T08:41:38.300Z,1948.00
2018-01-18T08:42:37.781Z,1824.00
2018-01-18T08:44:34.232Z,2224.00
2018-01-18T08:45:33.723Z,2008.00
2018-01-18T08:47:29.669Z,2276.00
2018-01-18T08:48:29.659Z,2532.00
2018-01-18T08:50:24.120Z,2068.00
2018-01-18T08:51:24.105Z,2952.00
2018-01-18T08:53:19.051Z,2540.00
2018-01-18T08:54:18.533Z,3408.00
2018-01-18T08:56:13.908Z,1884.00
2018-01-18T08:57:12.983Z,2512.00
2018-01-18T08:59:07.452Z,2600.00
2018-01-18T09:00:07.941Z,2648.00
2018-01-18T09:02:01.876Z,2320.00
2018-01-18T09:03:01.877Z,2488.00
2018-01-18T09:04:56.323Z,3268.00
2018-01-18T09:05:56.314Z,2472.00
2018-01-18T09:07:52.784Z,2596.00
2018-01-18T09:08:52.266Z,2480.00
2018-01-18T09:10:47.211Z,2292.00
2018-01-18T09:11:46.681Z,3236.00
2018-01-18T09:13:42.662Z,3524.00
2018-01-18T09:14:41.129Z,2220.00
2018-01-18T09:16:35.569Z,1848.00
2018-01-18T09:17:35.580Z,3156.00
2018-01-18T09:19:30.029Z,3148.00
2018-01-18T09:20:30.533Z,3132.00
2018-01-18T09:22:25.470Z,3052.00
2018-01-18T09:23:24.463Z,2752.00
2018-01-18T09:25:20.869Z,2264.00
2018-01-18T09:26:20.356Z,1944.00
2018-01-18T09:28:14.832Z,2704.00
2018-01-18T09:29:14.799Z,3048.00
2018-01-18T09:31:10.763Z,3000.00
2018-01-18T09:32:10.743Z,2972.00
2018-01-18T09:34:05.756Z,2220.00
2018-01-18T09:35:05.248Z,2508.00
2018-01-18T09:37:00.164Z,2668.00
2018-01-18T09:38:00.645Z,2352.00
2018-01-18T09:39:55.618Z,4800.00
2018-01-18T09:40:55.585Z,5624.00
2018-01-18T09:42:50.539Z,2544.00
2018-01-18T09:43:50.037Z,4020.00
2018-01-18T09:45:46.011Z,2380.00
2018-01-18T09:46:45.964Z,2172.00
2018-01-18T09:48:41.920Z,3704.00
2018-01-18T09:49:42.419Z,3368.00
2018-01-18T09:51:37.903Z,2692.00
2018-01-18T09:52:37.853Z,2908.00
2018-01-18T09:54:34.313Z,3300.00
2018-01-18T09:55:33.804Z,3020.00
2018-01-18T09:57:30.265Z,4376.00
2018-01-18T09:58:29.743Z,4992.00
2018-01-18T10:00:26.189Z,3408.00
2018-01-18T10:01:26.196Z,2792.00
2018-01-18T10:03:22.657Z,4584.00
2018-01-18T10:04:21.611Z,4160.00
2018-01-18T10:06:18.571Z,4720.00
2018-01-18T10:07:18.072Z,3560.00
2018-01-18T10:09:14.525Z,3848.00
2018-01-18T10:10:13.509Z,4988.00
2018-01-18T10:12:09.446Z,3040.00
2018-01-18T10:13:09.453Z,3260.00
2018-01-18T10:15:04.428Z,3004.00
2018-01-18T10:16:04.398Z,3428.00
2018-01-18T10:17:58.329Z,3272.00
2018-01-18T10:18:58.318Z,2792.00
2018-01-18T10:20:52.767Z,2852.00
2018-01-18T10:21:52.770Z,3660.00
2018-01-18T10:23:48.738Z,2692.00
2018-01-18T10:24:48.738Z,2944.00
2018-01-18T10:26:44.630Z,3388.00
2018-01-18T10:27:44.662Z,2284.00
2018-01-18T10:29:40.638Z,3836.00
2018-01-18T10:30:40.615Z,2288.00
2018-01-18T10:32:38.075Z,2276.00
2018-01-18T10:33:36.493Z,1948.00
2018-01-18T10:35:32.475Z,2496.00
2018-01-18T10:36:32.950Z,2120.00
2018-01-18T10:38:27.394Z,2284.00
2018-01-18T10:39:26.883Z,2684.00
2018-01-18T10:41:21.477Z,4720.00
2018-01-18T10:42:21.320Z,3188.00
2018-01-18T10:44:18.776Z,3040.00
2018-01-18T10:45:17.284Z,2456.00
2018-01-18T10:47:14.220Z,2796.00
2018-01-18T10:48:13.474Z,2756.00
2018-01-18T10:50:09.435Z,3320.00
2018-01-18T10:51:09.346Z,2956.00
2018-01-18T10:53:03.788Z,4784.00
2018-01-18T10:54:03.745Z,3928.00
2018-01-18T10:56:00.230Z,3528.00
2018-01-18T10:57:00.087Z,3856.00
2018-01-18T10:58:56.535Z,4076.00
2018-01-18T10:59:55.943Z,4284.00
2018-01-18T11:01:51.886Z,3988.00
2018-01-18T11:02:52.451Z,3392.00
2018-01-18T11:04:48.848Z,2724.00
2018-01-18T11:05:48.836Z,3080.00
2018-01-18T11:07:43.806Z,2512.00
2018-01-18T11:08:43.813Z,2272.00
2018-01-18T11:10:40.292Z,2108.00
2018-01-18T11:11:39.727Z,2184.00
2018-01-18T11:13:35.691Z,2424.00
2018-01-18T11:14:35.679Z,3748.00
2018-01-18T11:16:32.128Z,3952.00
2018-01-18T11:17:31.664Z,5180.00
2018-01-18T11:19:26.603Z,4744.00
2018-01-18T11:20:26.113Z,5016.00
2018-01-18T11:22:22.080Z,4996.00
2018-01-18T11:23:21.995Z,4944.00
2018-01-18T11:25:18.471Z,4164.00
2018-01-18T11:26:18.470Z,3516.00
2018-01-18T11:28:13.925Z,3388.00
2018-01-18T11:29:13.873Z,4208.00
2018-01-18T11:31:08.829Z,3536.00
2018-01-18T11:32:08.303Z,4604.00
2018-01-18T11:34:02.767Z,3716.00
2018-01-18T11:35:02.737Z,5488.00
2018-01-18T11:36:57.192Z,5240.00
2018-01-18T11:37:57.176Z,4420.00
2018-01-18T11:39:53.614Z,6916.00
2018-01-18T11:40:53.111Z,5268.00
2018-01-18T11:42:49.098Z,4268.00
2018-01-18T11:43:49.006Z,4472.00
2018-01-18T11:45:44.973Z,3120.00
2018-01-18T11:46:44.978Z,3496.00
2018-01-18T11:48:39.449Z,2868.00
2018-01-18T11:49:40.356Z,3028.00
2018-01-18T11:51:34.350Z,3096.00
2018-01-18T11:52:33.853Z,2900.00
2018-01-18T11:54:28.309Z,4640.00
2018-01-18T11:55:28.298Z,3356.00
2018-01-18T11:57:22.250Z,3328.00
2018-01-18T11:58:21.731Z,3012.00
2018-01-18T12:00:18.157Z,5288.00
2018-01-18T12:01:17.678Z,4244.00
2018-01-18T12:03:14.100Z,4716.00
2018-01-18T12:04:13.543Z,4240.00
2018-01-18T12:06:09.514Z,3320.00
2018-01-18T12:07:09.477Z,3328.00
2018-01-18T12:09:05.919Z,3968.00
2018-01-18T12:10:05.396Z,5244.00
2018-01-18T12:11:59.872Z,4876.00
2018-01-18T12:12:59.842Z,3992.00
2018-01-18T12:14:56.286Z,5244.00
2018-01-18T12:15:55.781Z,4044.00
2018-01-18T12:17:52.246Z,3388.00
2018-01-18T12:18:51.700Z,4984.00
2018-01-18T12:20:46.131Z,4444.00
2018-01-18T12:21:46.676Z,4940.00
2018-01-18T12:23:42.593Z,4288.00
2018-01-18T12:24:42.078Z,3856.00
2018-01-18T12:26:39.024Z,4160.00
2018-01-18T12:27:38.954Z,4672.00
2018-01-18T12:29:33.984Z,4632.00
2018-01-18T12:30:33.966Z,4656.00
2018-01-18T12:32:31.433Z,5556.00
2018-01-18T12:33:29.881Z,5240.00
2018-01-18T12:35:25.836Z,5356.00
2018-01-18T12:36:26.328Z,4764.00
2018-01-18T12:38:20.247Z,5144.00
2018-01-18T12:39:20.256Z,4660.00
2018-01-18T12:41:14.690Z,4836.00
2018-01-18T12:42:14.685Z,4692.00
2018-01-18T12:44:11.138Z,4456.00
2018-01-18T12:45:10.651Z,4288.00
2018-01-18T12:47:06.586Z,4112.00
2018-01-18T12:48:06.542Z,4252.00
2018-01-18T12:50:01.523Z,3788.00
2018-01-18T12:51:00.973Z,3436.00
2018-01-18T12:52:57.436Z,3884.00
2018-01-18T12:53:56.893Z,3916.00
2018-01-18T12:55:51.316Z,5224.00
2018-01-18T12:56:51.829Z,5100.00
2018-01-18T12:58:47.762Z,3812.00
2018-01-18T12:59:47.256Z,3456.00
2018-01-18T13:01:43.715Z,3764.00
2018-01-18T13:02:43.185Z,3648.00
2018-01-18T13:04:39.189Z,3620.00
2018-01-18T13:05:39.148Z,3704.00
2018-01-18T13:07:32.605Z,4260.00
2018-01-18T13:08:32.572Z,4172.00
2018-01-18T13:10:28.542Z,3980.00
2018-01-18T13:11:28.520Z,4964.00
2018-01-18T13:13:24.491Z,5416.00
2018-01-18T13:14:24.975Z,5344.00
2018-01-18T13:16:23.847Z,4188.00
2018-01-18T13:17:22.390Z,3964.00
2018-01-18T13:19:17.336Z,3860.00
2018-01-18T13:20:16.827Z,3912.00
2018-01-18T13:22:11.292Z,4228.00
2018-01-18T13:23:11.268Z,4096.00
2018-01-18T13:25:05.731Z,3728.00
2018-01-18T13:26:05.712Z,4112.00
2018-01-18T13:28:01.166Z,4148.00
2018-01-18T13:29:00.150Z,4548.00
2018-01-18T13:30:56.621Z,3572.00
2018-01-18T13:31:56.064Z,3804.00
2018-01-18T13:33:51.023Z,2548.00
2018-01-18T13:34:50.525Z,2608.00
2018-01-18T13:36:46.986Z,2856.00
2018-01-18T13:37:46.435Z,3560.00
2018-01-18T13:39:42.896Z,3192.00
2018-01-18T13:40:42.884Z,3604.00
2018-01-18T13:42:36.768Z,3996.00
2018-01-18T13:43:36.768Z,3648.00
2018-01-18T13:45:32.695Z,4348.00
2018-01-18T13:46:33.240Z,3556.00
2018-01-18T13:48:27.183Z,3768.00
2018-01-18T13:49:27.145Z,4092.00
2018-01-18T13:51:23.091Z,3380.00
2018-01-18T13:52:23.063Z,3088.00
2018-01-18T13:54:17.485Z,2540.00
2018-01-18T13:55:18.005Z,2904.00
2018-01-18T13:57:13.458Z,2768.00
2018-01-18T13:58:13.431Z,2716.00
2018-01-18T14:00:09.348Z,2856.00
2018-01-18T14:01:09.393Z,3300.00
2018-01-18T14:03:03.750Z,3700.00
2018-01-18T14:04:03.742Z,3592.00
2018-01-18T14:05:59.724Z,3472.00
2018-01-18T14:06:59.663Z,3432.00
2018-01-18T14:08:55.596Z,2276.00
2018-01-18T14:09:55.599Z,2200.00
2018-01-18T14:11:51.570Z,2352.00
2018-01-18T14:12:51.511Z,2112.00
2018-01-18T14:14:47.479Z,3544.00
2018-01-18T14:15:47.449Z,3500.00
2018-01-18T14:17:43.926Z,2152.00
2018-01-18T14:18:43.387Z,2268.00
2018-01-18T14:20:38.342Z,2104.00
2018-01-18T14:21:38.344Z,2176.00
2018-01-18T14:23:33.765Z,2184.00
2018-01-18T14:24:33.775Z,2184.00
2018-01-18T14:26:29.710Z,2424.00
2018-01-18T14:27:30.220Z,2940.00
2018-01-18T14:29:25.640Z,2576.00
2018-01-18T14:30:25.634Z,2692.00
2018-01-18T14:32:20.111Z,2280.00
2018-01-18T14:33:20.595Z,2000.00
2018-01-18T14:35:14.467Z,2336.00
2018-01-18T14:36:14.467Z,2240.00
2018-01-18T14:38:10.442Z,2004.00
2018-01-18T14:39:10.390Z,1872.00
2018-01-18T14:41:09.350Z,1868.00
2018-01-18T14:42:06.357Z,1752.00
2018-01-18T14:44:02.791Z,1696.00
2018-01-18T14:45:02.793Z,1716.00
2018-01-18T14:46:58.725Z,1708.00
2018-01-18T14:47:58.223Z,1528.00
2018-01-18T14:49:54.150Z,1436.00
2018-01-18T14:50:54.135Z,1396.00
2018-01-18T14:52:51.590Z,1284.00
2018-01-18T14:53:50.587Z,1264.00
2018-01-18T14:55:45.006Z,1204.00
2018-01-18T14:56:44.479Z,1248.00
2018-01-18T14:58:40.444Z,1308.00
2018-01-18T14:59:40.412Z,1272.00
2018-01-18T15:01:35.364Z,1172.00
2018-01-18T15:02:34.863Z,1044.00
2018-01-18T15:04:29.352Z,1000.00
2018-01-18T15:05:29.325Z,996.00
2018-01-18T15:07:25.440Z,976.00
2018-01-18T15:08:24.268Z,908.00
2018-01-18T15:10:19.693Z,916.00
2018-01-18T15:11:19.727Z,980.00
2018-01-18T15:13:16.167Z,868.00
2018-01-18T15:14:15.616Z,864.00
2018-01-18T15:16:12.073Z,864.00
2018-01-18T15:17:11.547Z,816.00
2018-01-18T15:19:07.495Z,576.00
2018-01-18T15:20:07.544Z,560.00
2018-01-18T15:22:03.947Z,504.00
2018-01-18T15:23:04.429Z,468.00
2018-01-18T15:24:59.474Z,448.00
2018-01-18T15:25:59.928Z,448.00
2018-01-18T15:27:55.896Z,520.00
2018-01-18T15:28:55.386Z,504.00
2018-01-18T15:30:53.872Z,544.00
2018-01-18T15:31:54.326Z,520.00
2018-01-18T15:33:49.440Z,508.00
2018-01-18T15:34:49.364Z,480.00
2018-01-18T15:36:45.295Z,496.00
2018-01-18T15:37:45.347Z,504.00
2018-01-18T15:39:41.735Z,472.00
2018-01-18T15:40:41.217Z,448.00
2018-01-18T15:42:37.116Z,452.00
2018-01-18T15:43:37.137Z,416.00
2018-01-18T15:45:37.067Z,344.00
2018-01-18T15:46:35.183Z,308.00
2018-01-18T15:48:33.194Z,296.00
2018-01-18T15:49:33.125Z,296.00
2018-01-18T15:51:29.092Z,276.00
2018-01-18T15:52:29.086Z,256.00
2018-01-18T15:54:27.582Z,224.00
2018-01-18T15:55:27.171Z,208.00
2018-01-18T15:57:28.545Z,172.00
2018-01-18T15:58:27.699Z,156.00
2018-01-18T16:00:23.781Z,136.00
2018-01-18T16:01:23.763Z,128.00
2018-01-18T16:03:19.730Z,112.00
2018-01-18T16:04:19.703Z,104.00
2018-01-18T16:06:16.168Z,76.00
2018-01-18T16:07:17.076Z,68.00
2018-01-18T16:09:12.067Z,56.00
2018-01-18T16:10:12.086Z,52.00
2018-01-18T16:12:09.646Z,40.00
2018-01-18T16:13:09.622Z,36.00
2018-01-18T16:15:06.034Z,28.00
2018-01-18T16:16:05.514Z,24.00
2018-01-18T16:18:01.981Z,20.00
2018-01-18T16:19:01.967Z,16.00
2018-01-18T16:20:57.369Z,12.00
2018-01-18T16:21:57.369Z,12.00
2018-01-18T16:23:53.846Z,8.00
2018-01-18T16:24:53.306Z,8.00
2018-01-18T16:26:53.102Z,4.00
2018-01-18T16:27:49.757Z,4.00
2018-01-18T16:29:46.913Z,0.00
2018-01-18T16:30:46.890Z,4.00
2018-01-18T16:32:43.327Z,0.00
2018-01-18T16:33:42.760Z,4.00
2018-01-18T16:35:39.707Z,4.00
2018-01-18T16:36:38.686Z,0.00
2018-01-18T16:38:35.630Z,0.00
2018-01-18T16:39:34.651Z,0.00
2018-01-18T16:41:32.652Z,0.00
2018-01-18T16:42:32.608Z,0.00
2018-01-18T16:44:29.091Z,0.00
2018-01-18T16:45:28.521Z,0.00
2018-01-18T16:47:29.466Z,0.00
2018-01-18T16:48:28.940Z,0.00
2018-01-18T16:50:24.856Z,0.00
2018-01-18T16:51:24.857Z,0.00
2018-01-18T16:53:22.312Z,0.00
2018-01-18T16:54:20.803Z,0.00
2018-01-18T16:56:16.798Z,0.00
2018-01-18T16:57:17.281Z,0.00
2018-01-18T16:59:12.711Z,0.00
2018-01-18T17:00:12.664Z,0.00
2018-01-18T17:02:09.141Z,0.00
2018-01-18T17:03:08.613Z,0.00
2018-01-18T17:05:05.070Z,0.00
2018-01-18T17:06:04.540Z,0.00
2018-01-18T17:08:00.482Z,0.00
2018-01-18T17:09:00.469Z,0.00
2018-01-18T17:10:56.398Z,0.00
2018-01-18T17:11:56.415Z,0.00
2018-01-18T17:14:00.546Z,0.00
2018-01-18T17:14:56.473Z,0.00
2018-01-18T17:16:51.253Z,0.00
2018-01-18T17:17:50.325Z,0.00
2018-01-18T17:19:47.189Z,0.00
2018-01-18T17:20:46.283Z,0.00
2018-01-18T17:22:46.125Z,0.00
2018-01-18T17:23:44.317Z,0.00
2018-01-18T17:25:41.187Z,0.00
2018-01-18T17:26:40.258Z,0.00
2018-01-18T17:28:36.204Z,0.00
2018-01-18T17:29:35.633Z,0.00
2018-01-18T17:31:31.838Z,0.00
2018-01-18T17:32:30.666Z,0.00
2018-01-18T17:34:27.584Z,0.00
2018-01-18T17:35:27.583Z,0.00
2018-01-18T17:37:26.218Z,0.00
2018-01-18T17:38:25.660Z,0.00
2018-01-18T17:40:23.555Z,0.00
2018-01-18T17:41:21.651Z,0.00
2018-01-18T17:43:19.082Z,0.00
2018-01-18T17:44:17.568Z,0.00
2018-01-18T17:46:13.530Z,0.00
2018-01-18T17:47:14.010Z,0.00
2018-01-18T17:49:09.417Z,0.00
2018-01-18T17:50:09.411Z,0.00
2018-01-18T17:52:05.349Z,0.00
2018-01-18T17:53:05.384Z,0.00
2018-01-18T17:55:01.302Z,0.00
2018-01-18T17:56:01.302Z,0.00
2018-01-18T17:57:57.235Z,0.00
2018-01-18T17:58:57.721Z,0.00
2018-01-18T18:00:54.197Z,0.00
2018-01-18T18:01:54.143Z,0.00
2018-01-18T18:03:50.571Z,0.00
2018-01-18T18:04:49.569Z,0.00
2018-01-18T18:06:51.096Z,0.00
2018-01-18T18:07:50.830Z,0.00
2018-01-18T18:09:47.296Z,0.00
2018-01-18T18:10:46.749Z,0.00
2018-01-18T18:12:45.239Z,0.00
2018-01-18T18:13:44.204Z,0.00
2018-01-18T18:15:41.012Z,0.00
2018-01-18T18:16:39.474Z,0.00
2018-01-18T18:18:35.451Z,0.00
2018-01-18T18:19:35.414Z,0.00
2018-01-18T18:21:31.874Z,0.00
2018-01-18T18:22:31.355Z,0.00
2018-01-18T18:24:27.316Z,0.00
2018-01-18T18:25:27.786Z,0.00
2018-01-18T18:27:24.751Z,0.00
2018-01-18T18:28:24.228Z,0.00
2018-01-18T18:30:20.685Z,0.00
2018-01-18T18:31:20.172Z,0.00
2018-01-18T18:33:16.112Z,0.00
2018-01-18T18:34:16.068Z,0.00
2018-01-18T18:36:12.538Z,0.00
2018-01-18T18:37:12.034Z,0.00
2018-01-18T18:39:08.478Z,0.00
2018-01-18T18:40:08.450Z,0.00
2018-01-18T18:42:04.390Z,0.00
2018-01-18T18:43:03.830Z,0.00
2018-01-18T18:45:00.312Z,0.00
2018-01-18T18:45:59.818Z,0.00
2018-01-18T18:47:56.234Z,0.00
2018-01-18T18:48:55.716Z,0.00
2018-01-18T18:50:53.640Z,0.00
2018-01-18T18:51:53.647Z,0.00
2018-01-18T18:53:51.674Z,0.00